Time;durP1;ratioP1;P1;durP2;ratioP2;P2;SDS_P1;SDS_P2;PMS_P1;PMS_P2;Temp;Humidity;BMP_temperature;BMP_pressure;BME280_temperature;BME280_humidity;BME280_pressure;Samples;Min_cycle;Max_cycle;Signal;HPM_P1;HPM_P2
2023/10/13 00:00:29;;;;;;;11.63;10.00;;;16.00;99.90;;;;;;5019640;28;20483;-85
2023/10/13 00:03:00;;;;;;;14.80;10.50;;;16.00;99.90;;;;;;5019697;28;20417;-86
2023/10/13 00:05:32;;;;;;;19.30;11.97;;;16.00;99.90;;;;;;5037463;28;20456;-85
2023/10/13 00:08:02;;;;;;;14.63;10.70;;;16.00;99.90;;;;;;5019518;28;20791;-85
2023/10/13 00:10:31;;;;;;;15.73;10.37;;;16.00;99.90;;;;;;5019809;28;20512;-85
2023/10/13 00:13:20;;;;;;;15.60;10.40;;;16.10;99.90;;;;;;5020094;28;20405;-85
2023/10/13 00:15:57;;;;;;;12.80;11.10;;;16.00;99.90;;;;;;5035648;28;20424;-85
2023/10/13 00:18:41;;;;;;;13.17;10.10;;;16.10;99.90;;;;;;5019764;28;20514;-85
2023/10/13 00:21:15;;;;;;;12.80;9.70;;;16.10;99.90;;;;;;5029166;28;20427;-85
2023/10/13 00:23:55;;;;;;;13.80;11.13;;;16.00;99.90;;;;;;5039081;28;20456;-86
2023/10/13 00:26:28;;;;;;;13.73;10.47;;;16.10;99.90;;;;;;5039028;28;20431;-85
2023/10/13 00:31:36;;;;;;;11.87;10.37;;;16.00;99.90;;;;;;5056845;28;20419;-86
2023/10/13 00:34:18;;;;;;;13.97;10.47;;;16.00;99.90;;;;;;5022939;28;20458;-85
2023/10/13 00:37:13;;;;;;;17.17;11.47;;;16.00;99.90;;;;;;5024556;28;20814;-85
2023/10/13 00:39:36;;;;;;;14.70;11.13;;;16.00;99.90;;;;;;5056062;28;20435;-85
2023/10/13 00:42:09;;;;;;;14.20;11.57;;;16.10;99.90;;;;;;5039469;28;20458;-85
2023/10/13 00:44:48;;;;;;;15.23;11.70;;;16.00;99.90;;;;;;5056950;28;20467;-85
2023/10/13 00:50:15;;;;;;;18.60;11.50;;;16.00;99.90;;;;;;4991283;28;20387;-85
2023/10/13 00:52:42;;;;;;;14.90;10.00;;;16.00;99.90;;;;;;5038464;28;20742;-85
2023/10/13 00:55:09;;;;;;;16.57;12.17;;;16.00;99.90;;;;;;5056791;28;20417;-86
2023/10/13 00:57:36;;;;;;;14.63;11.90;;;16.00;99.90;;;;;;5038741;28;20818;-85
2023/10/13 01:00:18;;;;;;;14.80;11.37;;;16.10;99.90;;;;;;5022185;28;20419;-85
2023/10/13 01:02:45;;;;;;;17.77;10.93;;;16.10;99.90;;;;;;5020972;28;20759;-85
2023/10/13 01:05:19;;;;;;;13.80;10.47;;;16.10;99.90;;;;;;5019027;28;20452;-85
2023/10/13 01:07:46;;;;;;;14.67;9.87;;;16.00;99.90;;;;;;5019842;28;20470;-85
2023/10/13 01:10:16;;;;;;;13.47;10.77;;;16.10;99.90;;;;;;5002708;28;20425;-85
2023/10/13 01:12:44;;;;;;;17.23;10.90;;;16.00;99.90;;;;;;5036093;28;20735;-85
2023/10/13 01:15:11;;;;;;;19.20;11.60;;;16.00;99.90;;;;;;5018372;28;20435;-85
2023/10/13 01:17:36;;;;;;;16.50;11.60;;;16.00;99.90;;;;;;4986515;28;20486;-85
2023/10/13 01:20:04;;;;;;;14.47;10.70;;;16.00;99.90;;;;;;5036030;28;20820;-85
2023/10/13 01:22:32;;;;;;;15.10;10.90;;;16.00;99.90;;;;;;5018332;28;20178;-85
2023/10/13 01:25:04;;;;;;;14.00;11.50;;;16.00;99.90;;;;;;5018260;28;20464;-85
2023/10/13 01:27:30;;;;;;;17.77;11.90;;;16.00;99.90;;;;;;5036098;28;20397;-85
2023/10/13 01:30:04;;;;;;;15.60;12.20;;;16.00;99.90;;;;;;5017945;28;20416;-85
2023/10/13 01:32:29;;;;;;;15.40;12.00;;;16.00;99.90;;;;;;5036262;28;20520;-86
2023/10/13 01:34:55;;;;;;;15.27;10.47;;;16.00;99.90;;;;;;5044090;28;20395;-86
2023/10/13 01:37:21;;;;;;;14.23;11.53;;;16.10;99.90;;;;;;5037781;28;20232;-86
2023/10/13 01:39:49;;;;;;;12.73;11.13;;;16.10;99.90;;;;;;5021423;28;20383;-86
2023/10/13 01:42:19;;;;;;;13.13;11.33;;;16.10;99.90;;;;;;5055386;28;20903;-86
2023/10/13 01:44:45;;;;;;;14.67;12.60;;;16.10;99.90;;;;;;5037541;28;20455;-87
2023/10/13 01:47:12;;;;;;;20.00;13.10;;;16.10;99.90;;;;;;5037871;28;20419;-87
2023/10/13 01:49:47;;;;;;;16.90;13.50;;;16.10;99.90;;;;;;5055562;28;20404;-88
2023/10/13 01:52:16;;;;;;;18.43;13.43;;;16.10;99.90;;;;;;5037296;28;20434;-88
2023/10/13 01:54:44;;;;;;;14.00;12.50;;;16.10;99.90;;;;;;5038367;28;20387;-89
2023/10/13 01:57:14;;;;;;;15.10;13.00;;;16.10;99.90;;;;;;5022223;28;20458;-88
2023/10/13 01:59:47;;;;;;;22.30;14.33;;;16.10;99.90;;;;;;5022198;28;20732;-88
2023/10/13 02:02:13;;;;;;;18.80;13.60;;;16.10;99.90;;;;;;5055496;28;20375;-88
2023/10/13 02:04:48;;;;;;;14.73;13.20;;;16.10;99.90;;;;;;5021017;28;20551;-88
2023/10/13 02:07:15;;;;;;;15.80;13.00;;;16.10;99.90;;;;;;5037173;28;20435;-87
2023/10/13 02:09:42;;;;;;;19.43;12.93;;;16.20;99.90;;;;;;5037601;28;20504;-88
2023/10/13 02:12:09;;;;;;;19.77;13.43;;;16.10;99.90;;;;;;5004660;28;20424;-88
2023/10/13 02:14:38;;;;;;;16.40;14.47;;;16.10;99.90;;;;;;5037332;28;20411;-88
2023/10/13 02:17:13;;;;;;;19.20;13.90;;;16.20;99.90;;;;;;5005016;28;20435;-88
2023/10/13 02:19:43;;;;;;;20.10;12.77;;;16.10;99.90;;;;;;5022105;28;20394;-88
2023/10/13 02:22:10;;;;;;;20.90;14.07;;;16.10;99.90;;;;;;5020778;28;20801;-88
2023/10/13 02:24:39;;;;;;;18.13;14.40;;;16.20;99.90;;;;;;5004953;28;20467;-88
2023/10/13 02:27:13;;;;;;;17.87;13.10;;;16.20;99.90;;;;;;5036706;28;20481;-88
2023/10/13 02:29:46;;;;;;;19.90;14.23;;;16.20;99.90;;;;;;5053822;28;20429;-88
2023/10/13 02:32:21;;;;;;;20.30;14.70;;;16.20;99.90;;;;;;5009731;28;20498;-88
2023/10/13 02:34:47;;;;;;;23.23;14.00;;;16.30;99.90;;;;;;5017803;28;20900;-88
2023/10/13 02:37:13;;;;;;;24.50;15.83;;;16.30;99.90;;;;;;5033944;28;20443;-88
2023/10/13 02:39:42;;;;;;;19.70;14.60;;;16.30;99.90;;;;;;5017178;28;20873;-88
2023/10/13 02:42:15;;;;;;;20.90;14.17;;;16.30;99.90;;;;;;5034477;28;20382;-88
2023/10/13 02:44:45;;;;;;;18.60;14.37;;;16.30;99.90;;;;;;5034511;28;20461;-89
2023/10/13 02:47:14;;;;;;;16.60;14.83;;;16.30;99.90;;;;;;5001455;28;20892;-88
2023/10/13 02:49:43;;;;;;;24.87;14.00;;;16.30;99.90;;;;;;5002233;28;20900;-90
2023/10/13 02:52:12;;;;;;;18.33;14.10;;;16.30;99.90;;;;;;5018022;28;20436;-89
2023/10/13 02:54:47;;;;;;;19.07;15.00;;;16.30;99.90;;;;;;5019107;28;20433;-89
2023/10/13 02:57:15;;;;;;;17.73;13.40;;;16.30;99.90;;;;;;5018823;28;20383;-89
2023/10/13 02:59:46;;;;;;;18.47;13.80;;;16.30;99.90;;;;;;5019574;28;20791;-89
2023/10/13 03:02:41;;;;;;;17.30;14.90;;;16.30;99.90;;;;;;5005294;28;20391;-88
2023/10/13 03:04:59;;;;;;;23.90;14.23;;;16.30;99.90;;;;;;5022075;28;20493;-88
2023/10/13 03:07:31;;;;;;;22.90;15.33;;;16.30;99.90;;;;;;5019241;28;20408;-89
2023/10/13 03:09:59;;;;;;;22.83;15.53;;;16.30;99.90;;;;;;5018366;28;20182;-88
2023/10/13 03:12:25;;;;;;;23.20;15.87;;;16.30;99.90;;;;;;5034849;28;20391;-88
2023/10/13 03:14:57;;;;;;;22.20;14.10;;;16.30;99.90;;;;;;5037408;28;20715;-88
2023/10/13 03:17:33;;;;;;;22.00;15.37;;;16.30;99.90;;;;;;5037265;28;20172;-89
2023/10/13 03:19:59;;;;;;;18.93;16.67;;;16.30;99.90;;;;;;5037487;28;20443;-89
2023/10/13 03:22:32;;;;;;;18.90;13.63;;;16.40;99.90;;;;;;5037148;28;20427;-89
2023/10/13 03:25:04;;;;;;;23.33;15.77;;;16.30;99.90;;;;;;5036001;28;20460;-89
2023/10/13 03:30:15;;;;;;;20.87;15.17;;;16.30;99.90;;;;;;5053910;28;20463;-88
2023/10/13 03:32:45;;;;;;;24.47;16.13;;;16.30;99.90;;;;;;5003000;28;20427;-88
2023/10/13 03:35:13;;;;;;;23.73;16.67;;;16.30;99.90;;;;;;5035800;28;20489;-88
2023/10/13 03:37:39;;;;;;;22.07;16.90;;;16.30;99.90;;;;;;5053564;28;20464;-88
2023/10/13 03:43:09;;;;;;;20.80;15.10;;;16.40;99.90;;;;;;5053639;28;20400;-88
2023/10/13 03:45:48;;;;;;;20.67;16.70;;;16.30;99.90;;;;;;5035791;28;20551;-88
2023/10/13 03:53:35;;;;;;;18.20;14.80;;;16.40;99.90;;;;;;5053145;28;20523;-87
2023/10/13 03:56:08;;;;;;;24.43;15.63;;;16.40;99.90;;;;;;5053087;28;20840;-87
2023/10/13 03:58:41;;;;;;;18.07;14.30;;;16.40;99.90;;;;;;5035639;28;20428;-87
2023/10/13 04:01:09;;;;;;;22.83;16.20;;;16.40;99.90;;;;;;5035037;28;20511;-87
2023/10/13 04:03:36;;;;;;;20.47;14.20;;;16.50;99.90;;;;;;5035161;28;20386;-87
2023/10/13 04:06:08;;;;;;;25.30;14.37;;;16.40;99.90;;;;;;5019084;28;20768;-86
2023/10/13 04:16:38;;;;;;;21.33;15.47;;;16.50;99.90;;;;;;5053651;28;20770;-89
2023/10/13 04:19:08;;;;;;;18.13;14.20;;;16.50;99.90;;;;;;5053051;28;20478;-88
2023/10/13 04:21:39;;;;;;;23.83;14.73;;;16.60;99.90;;;;;;5035382;28;20416;-89
2023/10/13 04:24:39;;;;;;;20.40;14.50;;;16.60;99.90;;;;;;5053061;28;20459;-88
2023/10/13 04:32:28;;;;;;;24.23;14.53;;;16.60;99.90;;;;;;5053690;28;20396;-89
2023/10/13 04:35:08;;;;;;;18.30;14.10;;;16.60;99.90;;;;;;5019353;28;20434;-88
2023/10/13 04:37:50;;;;;;;20.50;15.07;;;16.60;99.90;;;;;;5027056;28;20475;-89
2023/10/13 04:40:19;;;;;;;20.23;13.83;;;16.60;99.90;;;;;;5016951;28;20453;-89
2023/10/13 04:43:04;;;;;;;19.73;14.33;;;16.60;99.90;;;;;;5049227;28;20496;-89
2023/10/13 04:47:58;;;;;;;17.93;14.10;;;16.60;99.90;;;;;;5058403;28;20450;-88
2023/10/13 04:50:41;;;;;;;20.80;13.90;;;16.70;99.90;;;;;;5058362;28;20374;-89
2023/10/13 04:53:27;;;;;;;22.27;13.07;;;16.70;99.90;;;;;;5040714;28;20412;-89
2023/10/13 04:56:50;;;;;;;16.70;13.70;;;16.70;99.90;;;;;;5058249;28;20793;-89
2023/10/13 05:02:18;;;;;;;18.53;12.07;;;16.70;99.90;;;;;;5043461;28;20406;-89
2023/10/13 05:04:38;;;;;;;16.93;12.90;;;16.70;99.90;;;;;;5045117;28;20522;-89
2023/10/13 05:45:36;;;;;;;21.03;12.47;;;17.00;99.90;;;;;;5046098;28;20474;-92
2023/10/13 05:48:11;;;;;;;19.80;12.27;;;17.00;99.90;;;;;;5029013;28;20462;-91
2023/10/13 06:29:01;;;;;;;11.70;9.23;;;17.10;99.90;;;;;;5027411;28;20391;-89
2023/10/13 06:31:26;;;;;;;15.90;9.27;;;17.10;99.90;;;;;;5038611;28;20390;-88
2023/10/13 06:33:55;;;;;;;11.57;9.37;;;17.10;99.90;;;;;;5022132;28;20213;-89
2023/10/13 06:36:20;;;;;;;12.83;9.40;;;17.20;99.90;;;;;;5022091;28;20582;-88
2023/10/13 06:38:55;;;;;;;11.03;8.93;;;17.20;99.90;;;;;;5005040;28;20495;-89
2023/10/13 06:41:30;;;;;;;14.90;8.87;;;17.20;99.90;;;;;;5046385;28;20174;-88
2023/10/13 06:43:59;;;;;;;14.30;10.00;;;17.30;99.90;;;;;;5003043;28;20456;-88
2023/10/13 06:46:28;;;;;;;16.33;10.47;;;17.30;99.90;;;;;;5017435;28;20417;-88
2023/10/13 06:48:53;;;;;;;13.53;9.60;;;17.40;99.90;;;;;;5035211;28;20401;-88
2023/10/13 06:51:26;;;;;;;19.27;11.00;;;17.40;99.90;;;;;;5001268;28;20491;-88
2023/10/13 06:53:56;;;;;;;13.77;9.87;;;17.50;99.90;;;;;;5035565;28;20175;-88
2023/10/13 06:56:22;;;;;;;13.60;9.30;;;17.60;99.90;;;;;;5034602;28;20383;-88
2023/10/13 06:58:49;;;;;;;15.20;9.90;;;17.60;99.90;;;;;;5035749;28;20732;-89
2023/10/13 07:01:21;;;;;;;16.83;10.50;;;17.60;99.90;;;;;;5018581;28;20504;-88
2023/10/13 07:03:52;;;;;;;14.30;9.10;;;17.70;99.90;;;;;;5002602;28;20428;-88
2023/10/13 07:06:19;;;;;;;16.50;10.47;;;17.80;99.90;;;;;;5017501;28;20405;-88
2023/10/13 07:08:55;;;;;;;19.53;10.97;;;17.80;99.90;;;;;;5002337;28;20803;-87
2023/10/13 07:11:33;;;;;;;20.77;10.80;;;17.90;99.90;;;;;;5002429;28;21050;-87
2023/10/13 07:14:09;;;;;;;16.53;10.27;;;17.90;99.90;;;;;;5018291;28;20523;-87
2023/10/13 07:16:36;;;;;;;17.50;9.97;;;18.00;99.90;;;;;;4988169;28;20395;-87
2023/10/13 07:19:05;;;;;;;16.93;11.07;;;18.10;99.90;;;;;;5036279;28;20783;-87
2023/10/13 07:21:33;;;;;;;23.97;11.67;;;18.10;99.90;;;;;;5011779;28;20441;-87
2023/10/13 07:24:17;;;;;;;17.87;11.10;;;18.20;99.90;;;;;;5000194;28;20519;-87
2023/10/13 07:26:42;;;;;;;16.50;10.20;;;18.20;99.90;;;;;;5034424;28;20393;-87
2023/10/13 07:29:09;;;;;;;20.77;10.90;;;18.30;99.90;;;;;;5035080;28;20420;-87
2023/10/13 07:31:37;;;;;;;14.53;9.37;;;18.30;99.90;;;;;;5017066;28;20177;-86
2023/10/13 07:34:12;;;;;;;15.83;9.97;;;18.40;99.90;;;;;;5016261;28;20424;-86
2023/10/13 07:36:43;;;;;;;16.53;9.80;;;18.50;99.90;;;;;;5001361;28;20408;-86
2023/10/13 07:39:21;;;;;;;22.00;9.20;;;18.50;99.90;;;;;;4989062;28;20440;-86
2023/10/13 07:41:54;;;;;;;16.33;9.13;;;18.60;99.90;;;;;;5013303;28;20425;-86
2023/10/13 07:44:24;;;;;;;12.23;8.47;;;18.60;99.90;;;;;;5012779;28;20828;-86
2023/10/13 07:46:59;;;;;;;17.67;8.33;;;18.70;99.90;;;;;;5014295;28;20417;-86
2023/10/13 07:49:30;;;;;;;15.33;7.63;;;18.70;99.90;;;;;;4999719;28;20422;-86
2023/10/13 07:52:58;;;;;;;14.30;7.07;;;18.80;99.90;;;;;;5013411;28;20859;-86
2023/10/13 07:54:59;;;;;;;15.60;7.10;;;18.80;99.90;;;;;;5002082;28;20401;-85
2023/10/13 07:57:31;;;;;;;11.00;7.00;;;18.90;99.90;;;;;;4996877;28;20421;-85
2023/10/13 08:00:10;;;;;;;16.37;7.67;;;19.00;99.90;;;;;;5012752;28;20422;-85
2023/10/13 08:02:48;;;;;;;11.83;6.10;;;19.10;99.90;;;;;;4998084;28;20922;-86
2023/10/13 08:05:39;;;;;;;10.30;5.53;;;19.20;99.90;;;;;;5012305;28;20461;-85
2023/10/13 08:08:04;;;;;;;11.30;5.90;;;19.20;99.90;;;;;;5012334;28;20408;-85
2023/10/13 08:10:35;;;;;;;12.27;4.73;;;19.20;99.90;;;;;;5012258;28;20753;-84
2023/10/13 08:13:01;;;;;;;9.97;5.50;;;19.30;99.90;;;;;;5013440;28;20373;-85
2023/10/13 08:15:36;;;;;;;15.07;5.60;;;19.40;99.90;;;;;;5011961;28;20737;-85
2023/10/13 08:18:07;;;;;;;11.23;5.20;;;19.40;99.90;;;;;;4997335;28;20170;-85
2023/10/13 08:20:38;;;;;;;14.67;5.50;;;19.50;99.90;;;;;;5015683;28;20517;-84
2023/10/13 08:23:13;;;;;;;11.73;5.50;;;19.60;99.90;;;;;;5017730;28;20372;-84
2023/10/13 08:31:22;;;;;;;10.47;5.00;;;20.00;99.90;;;;;;5016453;28;20384;-83
2023/10/13 08:33:50;;;;;;;15.33;5.40;;;19.90;99.90;;;;;;5016438;28;20858;-83
2023/10/13 08:36:28;;;;;;;19.73;5.60;;;20.00;99.90;;;;;;5015734;28;20423;-83
2023/10/13 08:38:55;;;;;;;9.63;4.83;;;20.00;99.90;;;;;;5050460;28;20446;-83
2023/10/13 08:43:52;;;;;;;12.20;4.73;;;20.10;99.90;;;;;;5056769;28;20423;-83
2023/10/13 08:46:28;;;;;;;9.83;4.40;;;20.30;99.90;;;;;;5039195;28;20422;-82
2023/10/13 08:52:05;;;;;;;12.93;4.27;;;20.30;99.90;;;;;;5029977;28;20507;-83
2023/10/13 08:54:33;;;;;;;7.80;4.53;;;20.40;99.90;;;;;;5056668;28;20370;-83
2023/10/13 08:57:19;;;;;;;9.57;6.03;;;20.40;99.90;;;;;;5039218;28;20401;-83
2023/10/13 08:59:52;;;;;;;15.53;6.10;;;20.40;99.90;;;;;;5041662;28;20415;-83
2023/10/13 09:05:36;;;;;;;13.80;5.60;;;20.70;99.90;;;;;;5056622;28;20479;-83
2023/10/13 09:07:55;;;;;;;16.10;5.50;;;20.80;99.90;;;;;;5056595;28;20402;-82
2023/10/13 09:10:33;;;;;;;11.00;5.10;;;20.90;99.90;;;;;;5022367;28;20427;-82
2023/10/13 09:13:02;;;;;;;15.13;4.53;;;21.00;99.90;;;;;;5056656;28;20374;-82
2023/10/13 09:18:38;;;;;;;9.53;5.07;;;21.40;99.90;;;;;;5041784;28;20466;-82
2023/10/13 09:23:48;;;;;;;10.27;5.57;;;22.00;99.90;;;;;;5056713;28;20366;-82
2023/10/13 09:26:16;;;;;;;11.63;5.33;;;22.30;99.90;;;;;;5038412;28;20423;-82
2023/10/13 09:28:43;;;;;;;10.37;5.40;;;22.50;99.90;;;;;;5016194;28;20391;-83
2023/10/13 09:31:09;;;;;;;10.43;5.43;;;22.60;99.90;;;;;;5018371;28;20470;-82
2023/10/13 09:33:36;;;;;;;12.10;5.10;;;22.90;99.90;;;;;;5018654;28;20401;-82
2023/10/13 09:36:12;;;;;;;8.60;5.27;;;23.00;99.90;;;;;;5018104;28;20535;-82
2023/10/13 09:38:41;;;;;;;9.97;5.40;;;23.20;99.90;;;;;;5035449;28;20468;-83
2023/10/13 09:41:26;;;;;;;13.50;5.53;;;23.20;99.90;;;;;;5036210;28;20403;-82
2023/10/13 09:43:52;;;;;;;7.83;5.60;;;23.40;99.90;;;;;;5020863;28;20412;-82
2023/10/13 09:46:23;;;;;;;9.77;5.53;;;23.70;99.90;;;;;;5035910;28;20475;-82
2023/10/13 09:49:04;;;;;;;11.80;6.77;;;23.70;99.90;;;;;;5018163;28;20449;-85
2023/10/13 09:51:33;;;;;;;11.37;6.43;;;23.60;99.90;;;;;;5017613;28;20543;-84
2023/10/13 09:54:16;;;;;;;11.20;5.70;;;23.60;99.90;;;;;;5017551;28;20555;-85
2023/10/13 09:57:12;;;;;;;10.10;6.03;;;23.80;99.90;;;;;;5017676;28;20395;-85
2023/10/13 09:59:52;;;;;;;8.20;5.13;;;24.00;99.90;;;;;;5030492;28;20388;-84
2023/10/13 10:02:24;;;;;;;10.80;6.10;;;23.70;99.90;;;;;;5017424;28;20413;-83
2023/10/13 10:05:12;;;;;;;12.70;5.70;;;23.40;99.90;;;;;;5035359;28;20812;-84
2023/10/13 10:07:39;;;;;;;16.77;6.23;;;23.40;99.90;;;;;;5020129;28;20421;-83
2023/10/13 10:10:08;;;;;;;10.23;6.20;;;23.30;99.90;;;;;;5001384;28;20538;-83
2023/10/13 10:12:50;;;;;;;8.80;6.53;;;23.40;99.90;;;;;;5034746;28;20384;-82
2023/10/13 10:15:43;;;;;;;11.80;6.20;;;23.90;99.90;;;;;;5034930;28;20386;-82
2023/10/13 10:18:22;;;;;;;14.60;5.90;;;23.80;99.90;;;;;;5017414;28;20435;-83
2023/10/13 10:20:51;;;;;;;11.17;5.70;;;24.00;99.90;;;;;;5017351;28;20499;-82
2023/10/13 10:23:35;;;;;;;10.80;6.57;;;24.60;99.90;;;;;;5001404;28;20428;-84
2023/10/13 10:26:19;;;;;;;11.53;5.60;;;25.00;99.90;;;;;;5034750;28;20468;-83
2023/10/13 10:28:46;;;;;;;10.80;5.87;;;25.30;99.90;;;;;;5034907;28;20995;-84
2023/10/13 10:31:15;;;;;;;11.87;5.77;;;25.70;99.90;;;;;;5035327;28;20615;-84
2023/10/13 10:33:41;;;;;;;9.83;5.50;;;25.70;99.90;;;;;;5000931;28;20429;-84
2023/10/13 10:36:14;;;;;;;10.60;4.97;;;25.90;99.90;;;;;;5017404;28;20409;-83
2023/10/13 10:38:52;;;;;;;9.73;5.43;;;26.10;99.90;;;;;;5017977;28;20456;-83
2023/10/13 10:41:29;;;;;;;9.30;5.80;;;25.90;99.90;;;;;;5034000;28;20901;-78
2023/10/13 10:43:55;;;;;;;14.00;6.30;;;25.90;99.90;;;;;;5034358;28;20413;-81
2023/10/13 10:46:28;;;;;;;13.43;6.13;;;26.00;99.90;;;;;;5016778;28;20459;-84
2023/10/13 10:49:00;;;;;;;12.70;6.00;;;26.20;99.90;;;;;;5016846;28;20166;-83
2023/10/13 10:51:33;;;;;;;10.47;5.13;;;26.20;99.90;;;;;;5016109;28;20456;-82
2023/10/13 10:54:33;;;;;;;18.70;6.37;;;26.40;99.90;;;;;;5034813;28;20884;-79
2023/10/13 10:56:56;;;;;;;11.47;5.03;;;26.40;99.90;;;;;;5032145;28;20417;-84
2023/10/13 10:59:25;;;;;;;14.57;5.80;;;26.50;99.90;;;;;;5034132;28;20397;-83
2023/10/13 11:01:51;;;;;;;12.17;6.70;;;26.50;99.90;;;;;;5049972;28;20451;-83
2023/10/13 11:06:57;;;;;;;8.07;5.70;;;26.70;99.90;;;;;;5021173;28;20412;-84
2023/10/13 11:09:36;;;;;;;11.80;6.50;;;26.60;99.90;;;;;;5053861;28;20775;-84
2023/10/13 11:12:15;;;;;;;9.87;5.67;;;26.70;99.90;;;;;;5053921;28;20492;-83
2023/10/13 11:14:46;;;;;;;14.53;5.43;;;26.30;99.90;;;;;;5053821;28;20447;-83
2023/10/13 11:17:26;;;;;;;12.97;6.47;;;25.90;99.90;;;;;;5036583;28;20891;-83
2023/10/13 11:19:52;;;;;;;11.67;5.87;;;25.90;99.90;;;;;;5053910;28;20396;-83
2023/10/13 11:22:29;;;;;;;8.73;5.30;;;25.70;99.90;;;;;;5016106;28;20619;-84
2023/10/13 11:25:29;;;;;;;12.40;5.70;;;25.40;99.90;;;;;;5016303;28;20434;-84
2023/10/13 11:27:56;;;;;;;12.60;5.73;;;25.30;99.90;;;;;;5033838;28;20397;-84
2023/10/13 11:30:25;;;;;;;13.43;5.87;;;25.20;99.90;;;;;;5033484;28;20437;-84
2023/10/13 11:33:08;;;;;;;9.20;5.50;;;25.20;99.90;;;;;;4999773;28;20424;-84
2023/10/13 11:38:49;;;;;;;9.50;4.90;;;25.20;99.90;;;;;;5036347;28;20456;-84
2023/10/13 11:41:18;;;;;;;9.93;5.40;;;25.00;99.90;;;;;;5035944;28;20812;-83
2023/10/13 11:51:46;;;;;;;10.60;5.53;;;25.10;99.90;;;;;;5053125;28;20416;-84
2023/10/13 11:54:13;;;;;;;9.33;5.63;;;25.00;99.90;;;;;;5053351;28;20403;-83
2023/10/13 11:56:38;;;;;;;15.17;5.80;;;24.80;99.90;;;;;;5035241;28;20990;-84
2023/10/13 11:59:05;;;;;;;11.27;5.20;;;24.60;99.90;;;;;;5037792;28;20438;-84
2023/10/13 12:04:32;;;;;;;9.47;5.17;;;24.60;99.90;;;;;;5052925;28;20512;-81
2023/10/13 12:12:24;;;;;;;13.37;4.83;;;24.50;99.90;;;;;;5036780;28;20408;-83
2023/10/13 12:14:54;;;;;;;14.50;5.87;;;24.40;99.90;;;;;;5036015;28;20408;-82
2023/10/13 12:17:36;;;;;;;15.30;5.30;;;24.40;99.90;;;;;;5053231;28;20393;-82
2023/10/13 12:20:05;;;;;;;11.73;5.80;;;24.40;99.90;;;;;;5035142;28;20412;-80
2023/10/13 12:22:42;;;;;;;16.73;4.70;;;24.40;99.90;;;;;;5019010;28;20515;-81
2023/10/13 12:27:59;;;;;;;26.87;5.43;;;24.30;99.90;;;;;;5053119;28;20377;-81
2023/10/13 12:33:09;;;;;;;14.10;4.67;;;24.30;99.90;;;;;;5052919;28;20743;-81
2023/10/13 12:38:39;;;;;;;14.03;5.20;;;24.30;99.90;;;;;;5017591;28;20253;-78
2023/10/13 12:49:48;;;;;;;10.27;5.60;;;24.20;99.90;;;;;;5038614;28;20598;-80
2023/10/13 12:52:03;;;;;;;14.67;5.77;;;24.20;99.90;;;;;;5037833;28;20968;-80
2023/10/13 12:54:35;;;;;;;14.97;6.10;;;24.20;99.90;;;;;;5034982;28;20491;-82
2023/10/13 12:57:01;;;;;;;16.90;5.60;;;24.30;99.90;;;;;;5052763;28;20594;-81
2023/10/13 12:59:27;;;;;;;11.23;5.83;;;24.20;99.90;;;;;;5018359;28;20733;-82
2023/10/13 13:01:53;;;;;;;12.47;5.50;;;24.30;99.90;;;;;;5052631;28;20402;-81
2023/10/13 13:04:24;;;;;;;13.27;5.47;;;24.40;99.90;;;;;;5035063;28;20205;-80
2023/10/13 13:06:50;;;;;;;9.07;4.73;;;24.40;99.90;;;;;;5039288;28;20408;-83
2023/10/13 13:09:25;;;;;;;15.17;5.33;;;24.30;99.90;;;;;;5038522;28;20419;-83
2023/10/13 13:11:58;;;;;;;17.83;6.00;;;24.30;99.90;;;;;;5023026;28;20933;-81
2023/10/13 13:14:30;;;;;;;10.83;5.13;;;24.30;99.90;;;;;;5055952;28;20435;-84
2023/10/13 13:17:04;;;;;;;15.70;6.30;;;24.30;99.90;;;;;;5022937;28;20416;-85
2023/10/13 13:19:35;;;;;;;14.43;5.00;;;24.20;99.90;;;;;;5037847;28;20438;-82
2023/10/13 13:22:02;;;;;;;14.80;5.57;;;24.10;99.90;;;;;;5038128;28;20435;-83
2023/10/13 13:24:29;;;;;;;15.03;5.37;;;24.10;99.90;;;;;;5038812;28;20801;-82
2023/10/13 13:26:56;;;;;;;14.50;6.40;;;24.00;99.90;;;;;;5022347;28;20439;-79
2023/10/13 13:29:21;;;;;;;17.00;4.47;;;24.00;99.90;;;;;;5038154;28;20434;-80
2023/10/13 13:31:47;;;;;;;13.43;5.00;;;23.70;99.90;;;;;;5055494;28;20410;-82
2023/10/13 13:34:12;;;;;;;15.80;5.43;;;23.20;99.90;;;;;;5021586;28;20186;-81
2023/10/13 13:36:43;;;;;;;14.13;6.43;;;23.00;99.90;;;;;;5021198;28;20177;-81
2023/10/13 13:39:09;;;;;;;8.50;5.50;;;22.90;99.90;;;;;;5056350;28;20382;-83
2023/10/13 13:41:35;;;;;;;18.83;5.07;;;23.00;99.90;;;;;;5037874;28;20427;-83
2023/10/13 13:44:15;;;;;;;12.10;4.67;;;23.00;99.90;;;;;;5004856;28;20449;-82
2023/10/13 13:46:42;;;;;;;12.87;5.07;;;23.00;99.90;;;;;;5039517;28;20173;-82
2023/10/13 13:49:17;;;;;;;21.27;5.87;;;23.10;99.90;;;;;;5055388;28;20383;-82
2023/10/13 13:51:55;;;;;;;9.20;5.30;;;23.20;99.90;;;;;;5038708;28;20390;-80
2023/10/13 13:54:20;;;;;;;15.03;5.20;;;23.30;99.90;;;;;;5055482;28;20400;-81
2023/10/13 13:56:49;;;;;;;9.07;4.90;;;23.30;99.90;;;;;;5021034;28;20511;-80
2023/10/13 13:59:16;;;;;;;16.13;5.50;;;23.40;99.90;;;;;;5037383;28;20276;-83
2023/10/13 14:01:44;;;;;;;12.63;4.67;;;23.50;99.90;;;;;;5037226;28;20466;-84
2023/10/13 14:04:10;;;;;;;12.23;6.00;;;23.50;99.90;;;;;;5037388;28;20965;-85
2023/10/13 14:06:37;;;;;;;13.53;5.60;;;23.60;99.90;;;;;;5043324;28;20431;-81
2023/10/13 14:12:25;;;;;;;14.57;5.30;;;23.70;99.90;;;;;;4994270;28;20425;-84
2023/10/13 14:14:49;;;;;;;14.63;6.37;;;23.70;99.90;;;;;;5020929;28;20425;-84
2023/10/13 14:17:14;;;;;;;10.47;5.47;;;23.70;99.90;;;;;;5017371;28;20383;-84
2023/10/13 14:19:40;;;;;;;8.77;5.40;;;23.60;99.90;;;;;;5017173;28;20958;-84
2023/10/13 14:22:06;;;;;;;15.00;5.93;;;23.50;99.90;;;;;;5017232;28;20229;-83
2023/10/13 14:24:34;;;;;;;10.90;5.20;;;23.40;99.90;;;;;;5000535;28;20209;-81
2023/10/13 14:27:09;;;;;;;9.50;4.77;;;23.50;99.90;;;;;;5035520;28;20399;-84
2023/10/13 14:29:40;;;;;;;18.63;5.50;;;23.50;99.90;;;;;;5054680;28;20387;-84
2023/10/13 14:32:07;;;;;;;14.40;4.70;;;23.50;99.90;;;;;;5020890;28;20485;-84
2023/10/13 14:34:35;;;;;;;18.77;6.00;;;23.50;99.90;;;;;;5020423;28;20892;-84
2023/10/13 14:37:00;;;;;;;9.80;4.60;;;23.50;99.90;;;;;;5036373;28;20416;-83
2023/10/13 14:39:29;;;;;;;10.50;4.97;;;23.50;99.90;;;;;;5036469;28;20507;-84
2023/10/13 14:41:55;;;;;;;11.67;5.30;;;23.30;99.90;;;;;;5021508;28;20165;-84
2023/10/13 14:44:26;;;;;;;13.03;5.40;;;23.30;99.90;;;;;;5003711;28;20474;-84
2023/10/13 14:46:54;;;;;;;7.07;4.43;;;23.20;99.90;;;;;;5036828;28;20178;-85
2023/10/13 14:49:20;;;;;;;11.30;4.70;;;23.20;99.90;;;;;;5054527;28;20754;-82
2023/10/13 14:51:46;;;;;;;11.30;5.30;;;23.10;99.90;;;;;;5048812;28;20749;-83
2023/10/13 14:54:14;;;;;;;14.57;5.43;;;23.10;99.90;;;;;;5016777;28;20417;-83
2023/10/13 14:56:42;;;;;;;9.67;5.00;;;23.00;99.90;;;;;;5034218;28;20174;-81
2023/10/13 14:59:14;;;;;;;11.70;5.17;;;23.00;99.90;;;;;;5016948;28;20571;-81
2023/10/13 15:01:40;;;;;;;9.43;5.10;;;22.90;99.90;;;;;;5034332;28;20397;-83
2023/10/13 15:04:06;;;;;;;8.17;5.00;;;22.90;99.90;;;;;;5016643;28;20547;-84
2023/10/13 15:06:32;;;;;;;10.10;4.70;;;22.90;99.90;;;;;;4999655;28;20178;-89
2023/10/13 15:08:59;;;;;;;11.17;6.10;;;22.90;99.90;;;;;;5019216;28;20577;-83
2023/10/13 15:11:38;;;;;;;9.37;4.97;;;22.90;99.90;;;;;;5019983;28;20425;-86
2023/10/13 15:14:06;;;;;;;16.00;5.17;;;22.90;99.90;;;;;;5053817;28;20455;-83
2023/10/13 15:16:33;;;;;;;10.67;4.63;;;22.80;99.90;;;;;;5036218;28;21025;-83
2023/10/13 15:18:59;;;;;;;13.90;4.90;;;22.80;99.90;;;;;;5036076;28;20386;-85
2023/10/13 15:21:35;;;;;;;11.53;4.67;;;22.80;99.90;;;;;;5036022;28;20436;-83
2023/10/13 15:24:13;;;;;;;11.67;4.37;;;22.70;99.90;;;;;;5053493;28;20763;-83
2023/10/13 15:26:41;;;;;;;11.70;5.23;;;22.70;99.90;;;;;;5005029;28;20914;-84
2023/10/13 15:29:12;;;;;;;9.70;4.67;;;22.70;99.90;;;;;;5036014;28;20466;-85
2023/10/13 15:31:40;;;;;;;17.23;5.40;;;22.70;99.90;;;;;;5053646;28;20454;-83
2023/10/13 15:34:14;;;;;;;10.93;4.73;;;22.70;99.90;;;;;;5035905;28;20771;-78
2023/10/13 15:36:42;;;;;;;7.93;3.97;;;22.70;99.90;;;;;;5035259;28;20459;-82
2023/10/13 15:39:10;;;;;;;11.97;4.10;;;22.40;99.90;;;;;;5019018;28;20512;-81
2023/10/13 15:41:37;;;;;;;6.17;4.53;;;22.20;99.90;;;;;;5035864;28;20412;-81
2023/10/13 15:44:09;;;;;;;10.77;5.30;;;22.00;99.90;;;;;;5053472;28;20408;-82
2023/10/13 15:46:35;;;;;;;12.83;4.20;;;22.00;99.90;;;;;;5035321;28;20399;-82
2023/10/13 15:49:03;;;;;;;11.73;5.40;;;21.90;99.90;;;;;;5035699;28;20412;-85